KSHN/SHN METAR and TAF weather

Enter ICAO airport designator
Station Type Date Time Source
KSHN METAR 2022/05/26 04:53 UTC NOAA

KSHN 260453Z AUTO 27004KT 10SM CLR 12/08 A2995 RMK AO2 SLP142 T01220083


Station Type Date Time Source
KSHN Decoded METAR 2022/05/26 04:53 UTC NOAA

SHELTON SANDERSON FIELD, WA, United States (KSHN) 47-14N 123-08W 82M
May 26, 2022 - 12:53 AM EDT / 2022.05.26 0453 UTC
Wind: from the W (270 degrees) at 5 MPH (4 KT):0
Visibility: 10 mile(s):0
Sky conditions: clear
Temperature: 54.0 F (12.2 C)
Dew Point: 46.9 F (8.3 C)
Relative Humidity: 77%
Pressure (altimeter): 29.95 in. Hg (1014 hPa)
ob: KSHN 260453Z AUTO 27004KT 10SM CLR 12/08 A2995 RMK AO2 SLP142 T01220083
cycle: 5

Station Type Date Time Source
KSHN TAF UTC NOAA

Error!

Example: see airport list